KAVP/AVP METAR and TAF weather

Enter ICAO airport designator
Station Type Date Time Source
KAVP METAR 2021/07/26 16:54 UTC NOAA

KAVP 261654Z 29007KT 5SM HZ CLR 28/15 A2997 RMK AO2 SLP137 T02830150


Station Type Date Time Source
KAVP Decoded METAR 2021/07/26 16:54 UTC NOAA

WILKES-BARRE/SCRANTON INTERNATIONAL , PA, United States (KAVP) 41-20N 75-44W 291M
Jul 26, 2021 - 12:54 PM EDT / 2021.07.26 1654 UTC
Wind: from the WNW (290 degrees) at 8 MPH (7 KT):0
Visibility: 5 mile(s):0
Sky conditions: clear
Weather: haze
Temperature: 82.9 F (28.3 C)
Dew Point: 59.0 F (15.0 C)
Relative Humidity: 44%
Pressure (altimeter): 29.97 in. Hg (1014 hPa)
ob: KAVP 261654Z 29007KT 5SM HZ CLR 28/15 A2997 RMK AO2 SLP137 T02830150
cycle: 17

Station Type Date Time Source
KAVP TAF 2021/07/26 18:33 UTC NOAA

TAF KAVP 261731Z 2618/2718 27007KT 5SM HZ SCT050
FM262100 30007KT P6SM SCT050
FM270000 VRB03KT P6SM FEW250

Example: see airport list